This is the latest recevied weather packets stored in our database for station/object HP1COO-13. If no packets are shown the sender has not sent any weather packets the latest 10 day(s).
| Time | Temp. | Humidity | Pressure | Rain* | Wind** | Luminosity | Snow |
|---|---|---|---|---|---|---|---|
| 1787414513 | 28.33° C | 88% | 1008.9 hPa | 2.03 mm | - | - | - |
| 1787413880 | 27.78° C | 91% | 1008.9 hPa | 2.03 mm | - | - | - |
| 1787412614 | 27.78° C | 88% | 1008.8 hPa | 1.52 mm | - | - | - |
| 1787411349 | 30.56° C | 79% | 1009.5 hPa | 0 mm | - | - | - |
| 1787410716 | 31.11° C | 78% | 1009.5 hPa | 0 mm | - | - | - |
| 1787410083 | 31.11° C | 76% | 1009.5 hPa | 0 mm | - | - | - |
| 1787409450 | 31.11° C | 77% | 1009.4 hPa | 0 mm | - | - | - |
| 1787408817 | 30.56° C | 78% | 1009.6 hPa | 0 mm | - | - | - |
| 1787408184 | 30.56° C | 79% | 1009.7 hPa | 0 mm | - | - | - |
| 1787407551 | 30° C | 80% | 1009.6 hPa | 0 mm | - | - | - |
| 1787406918 | 30° C | 80% | 1009.8 hPa | 0 mm | - | - | - |
| 1787406285 | 30.56° C | 79% | 1009.8 hPa | 0 mm | - | - | - |
| 1787405652 | 29.44° C | 81% | 1009.6 hPa | 0 mm | - | - | - |
| 1787405019 | 28.89° C | 83% | 1009.5 hPa | 0 mm | - | - | - |
| 1787404385 | 28.33° C | 84% | 1009.6 hPa | 0 mm | - | - | - |
| 1787403752 | 27.78° C | 90% | 1009.5 hPa | 0 mm | - | - | - |
| 1787403119 | 27.78° C | 90% | 1009.3 hPa | 0 mm | - | - | - |
| 1787402486 | 27.22° C | 89% | 1009.3 hPa | 0 mm | - | - | - |
| 1787401853 | 27.22° C | 91% | 1009 hPa | 0 mm | - | - | - |
| 1787401220 | 27.22° C | 92% | 1009 hPa | 0 mm | - | - | - |
| 1787400587 | 26.67° C | 93% | 1008.9 hPa | 0 mm | - | - | - |
| 1787399954 | 26.67° C | 93% | 1009.1 hPa | 0 mm | - | - | - |
| 1787399321 | 26.11° C | 93% | 1008.8 hPa | 0 mm | - | - | - |
| 1787398688 | 26.11° C | 94% | 1008.4 hPa | 0 mm | - | - | - |
| 1787398055 | 26.11° C | 93% | 1008.1 hPa | 0 mm | - | - | - |
* Rain latest hour (hover to see other rain measurements)
** Current wind speed in m/s (hover to see current wind gust speed)